Terminal Aerodrome Forecast
Issued by NWS Memphis, TN

Home | Current Version | Previous Version | Text Only | Print | Product List | Glossary On
Versions: 1 2 3 4 5 6 7 8 9 10 11 12 13 14 15 16 17
000
FTUS44 KMEG 031502 AAA
TAFMKL
TAF AMD
KMKL 031502Z 0315/0412 24008KT P6SM VCSH BKN030 OVC050
     FM031600 24008KT P6SM -SHRA VCTS SCT030 OVC050CB
      TEMPO 0316/0320 VRB10G20KT 3SM TSRA OVC030CB
     FM040000 24010KT P6SM VCSH OVC040
     FM040700 23003KT 4SM BR OVC030=

USA.gov is the U.S. government's official web portal to all federal, state and local government web resources and services.